createdAt,value
2019-03-12T00:01:18.227Z,99.90
2019-03-12T00:03:45.796Z,99.90
2019-03-12T00:06:13.072Z,99.90
2019-03-12T00:08:40.475Z,99.90
2019-03-12T00:11:08.075Z,99.90
2019-03-12T00:13:35.621Z,99.90
2019-03-12T00:16:03.061Z,99.90
2019-03-12T00:18:30.324Z,99.90
2019-03-12T00:20:57.342Z,99.90
2019-03-12T00:23:25.025Z,99.90
2019-03-12T00:25:51.954Z,99.90
2019-03-12T00:28:19.820Z,99.90
2019-03-12T00:30:47.338Z,99.90
2019-03-12T00:33:15.799Z,99.90
2019-03-12T00:35:43.522Z,99.90
2019-03-12T00:38:11.756Z,99.90
2019-03-12T00:40:38.686Z,99.90
2019-03-12T00:43:05.722Z,99.90
2019-03-12T00:45:33.116Z,99.90
2019-03-12T00:48:00.218Z,99.90
2019-03-12T00:50:27.945Z,99.90
2019-03-12T00:52:56.080Z,99.90
2019-03-12T00:55:22.994Z,99.90
2019-03-12T00:57:49.976Z,99.90
2019-03-12T01:00:17.367Z,99.90
2019-03-12T01:02:44.475Z,99.90
2019-03-12T01:05:11.640Z,99.90
2019-03-12T01:07:38.690Z,99.90
2019-03-12T01:10:07.890Z,99.90
2019-03-12T01:12:35.047Z,99.90
2019-03-12T01:15:02.216Z,99.90
2019-03-12T01:17:29.719Z,99.90
2019-03-12T01:19:56.713Z,99.90
2019-03-12T01:22:23.650Z,99.90
2019-03-12T01:24:50.979Z,99.90
2019-03-12T01:27:18.027Z,99.90
2019-03-12T01:29:45.015Z,99.90
2019-03-12T01:32:12.107Z,99.90
2019-03-12T01:34:39.328Z,99.90
2019-03-12T01:37:06.379Z,99.90
2019-03-12T01:39:33.338Z,99.90
2019-03-12T01:42:00.759Z,99.90
2019-03-12T01:44:28.032Z,99.90
2019-03-12T01:46:54.972Z,99.90
2019-03-12T01:49:21.878Z,99.90
2019-03-12T01:51:49.150Z,99.90
2019-03-12T01:54:16.276Z,99.90
2019-03-12T01:56:43.500Z,99.90
2019-03-12T01:59:10.444Z,99.90
2019-03-12T02:01:37.938Z,99.90
2019-03-12T02:04:05.029Z,99.90
2019-03-12T02:06:32.176Z,99.90
2019-03-12T02:08:59.185Z,99.90
2019-03-12T02:11:26.230Z,99.90
2019-03-12T02:13:53.149Z,99.90
2019-03-12T02:16:20.306Z,99.90
2019-03-12T02:18:47.454Z,99.90
2019-03-12T02:21:14.563Z,99.90
2019-03-12T02:23:41.858Z,99.90
2019-03-12T02:26:08.836Z,99.90
2019-03-12T02:28:36.306Z,99.90
2019-03-12T02:31:03.938Z,99.90
2019-03-12T02:33:31.612Z,99.90
2019-03-12T02:35:58.666Z,99.90
2019-03-12T02:38:25.896Z,99.90
2019-03-12T02:40:53.278Z,99.90
2019-03-12T02:43:20.473Z,99.90
2019-03-12T02:45:48.035Z,99.90
2019-03-12T02:48:16.258Z,99.90
2019-03-12T02:50:43.383Z,99.90
2019-03-12T02:53:10.540Z,99.90
2019-03-12T02:55:37.506Z,99.90
2019-03-12T02:58:05.090Z,99.90
2019-03-12T03:00:32.030Z,99.90
2019-03-12T03:02:58.910Z,99.90
2019-03-12T03:05:26.074Z,99.90
2019-03-12T03:08:05.341Z,99.90
2019-03-12T03:10:32.843Z,99.90
2019-03-12T03:13:00.099Z,99.90
2019-03-12T03:15:31.255Z,99.90
2019-03-12T03:17:58.391Z,99.90
2019-03-12T03:20:26.220Z,99.90
2019-03-12T03:22:53.162Z,99.90
2019-03-12T03:25:20.515Z,99.90
2019-03-12T03:27:47.827Z,99.90
2019-03-12T03:30:17.638Z,99.90
2019-03-12T03:32:44.790Z,99.90
2019-03-12T03:35:12.401Z,99.90
2019-03-12T03:37:39.352Z,99.90
2019-03-12T03:40:06.451Z,99.90
2019-03-12T03:42:33.720Z,99.90
2019-03-12T03:45:00.731Z,99.90
2019-03-12T03:47:27.880Z,99.90
2019-03-12T03:49:55.488Z,99.90
2019-03-12T03:52:22.674Z,99.90
2019-03-12T03:54:49.710Z,99.90
2019-03-12T03:57:17.027Z,99.90
2019-03-12T03:59:44.518Z,99.90
2019-03-12T04:02:11.574Z,99.90
2019-03-12T04:04:38.985Z,99.90
2019-03-12T04:07:06.561Z,99.90
2019-03-12T04:09:33.827Z,99.90
2019-03-12T04:12:00.952Z,99.90
2019-03-12T04:14:28.312Z,99.90
2019-03-12T04:16:55.492Z,99.90
2019-03-12T04:19:22.871Z,99.90
2019-03-12T04:21:50.215Z,99.90
2019-03-12T04:24:17.241Z,99.90
2019-03-12T04:26:45.250Z,99.90
2019-03-12T04:29:12.232Z,99.90
2019-03-12T04:31:39.367Z,99.90
2019-03-12T04:34:11.345Z,99.90
2019-03-12T04:36:38.582Z,99.90
2019-03-12T04:39:06.134Z,99.90
2019-03-12T04:41:35.146Z,99.90
2019-03-12T04:44:02.337Z,99.90
2019-03-12T04:46:29.390Z,99.90
2019-03-12T04:48:56.623Z,99.90
2019-03-12T04:51:23.518Z,99.90
2019-03-12T04:53:50.680Z,99.90
2019-03-12T04:56:17.635Z,99.90
2019-03-12T04:58:45.968Z,99.90
2019-03-12T05:01:13.168Z,99.90
2019-03-12T05:03:40.334Z,99.90
2019-03-12T05:06:07.739Z,99.90
2019-03-12T05:08:34.655Z,99.90
2019-03-12T05:11:01.859Z,99.90
2019-03-12T05:13:29.199Z,99.90
2019-03-12T05:15:56.733Z,99.90
2019-03-12T05:18:23.668Z,99.90
2019-03-12T05:20:50.991Z,99.90
2019-03-12T05:23:17.878Z,99.90
2019-03-12T05:25:45.087Z,99.90
2019-03-12T05:28:12.139Z,99.90
2019-03-12T05:30:39.454Z,99.90
2019-03-12T05:33:06.560Z,99.90
2019-03-12T05:35:34.032Z,99.90
2019-03-12T05:38:01.787Z,99.90
2019-03-12T05:40:29.720Z,99.90
2019-03-12T05:42:57.355Z,99.90
2019-03-12T05:45:24.261Z,99.90
2019-03-12T05:47:51.534Z,99.90
2019-03-12T05:50:18.444Z,99.90
2019-03-12T05:52:48.805Z,99.90
2019-03-12T05:55:14.974Z,99.90
2019-03-12T05:57:43.466Z,99.90
2019-03-12T06:00:12.427Z,99.90
2019-03-12T06:02:39.677Z,99.90
2019-03-12T06:05:07.786Z,99.90
2019-03-12T06:07:34.978Z,99.90
2019-03-12T06:10:02.054Z,99.90
2019-03-12T06:12:29.377Z,99.90
2019-03-12T06:14:56.442Z,99.90
2019-03-12T06:17:23.847Z,99.90
2019-03-12T06:19:51.404Z,99.90
2019-03-12T06:22:18.564Z,99.90
2019-03-12T06:24:45.758Z,99.90
2019-03-12T06:27:12.694Z,99.90
2019-03-12T06:29:39.631Z,99.90
2019-03-12T06:32:35.775Z,99.90
2019-03-12T06:35:16.978Z,99.90
2019-03-12T06:38:04.748Z,99.90
2019-03-12T06:40:48.514Z,99.90
2019-03-12T06:43:20.561Z,99.90
2019-03-12T06:46:07.612Z,99.90
2019-03-12T06:48:56.726Z,99.90
2019-03-12T06:51:42.231Z,99.90
2019-03-12T06:54:15.861Z,99.90
2019-03-12T06:56:49.687Z,99.90
2019-03-12T06:59:24.469Z,99.90
2019-03-12T07:02:05.659Z,99.90
2019-03-12T07:04:40.462Z,99.90
2019-03-12T07:07:36.120Z,99.90
2019-03-12T07:10:22.814Z,99.90
2019-03-12T07:13:12.316Z,99.90
2019-03-12T07:15:45.510Z,99.90
2019-03-12T07:18:43.986Z,99.90
2019-03-12T07:21:27.265Z,99.90
2019-03-12T07:24:29.016Z,99.90
2019-03-12T07:27:03.331Z,99.90
2019-03-12T07:29:36.668Z,99.90
2019-03-12T07:32:14.172Z,99.90
2019-03-12T07:34:51.910Z,99.90
2019-03-12T07:37:34.305Z,99.90
2019-03-12T07:40:07.937Z,99.90
2019-03-12T07:42:39.265Z,99.90
2019-03-12T07:45:29.239Z,99.90
2019-03-12T07:48:24.792Z,99.90
2019-03-12T07:51:11.524Z,99.90
2019-03-12T07:53:59.691Z,99.90
2019-03-12T07:56:44.436Z,99.90
2019-03-12T07:59:43.707Z,99.90
2019-03-12T08:02:18.951Z,99.90
2019-03-12T08:04:58.547Z,99.90
2019-03-12T08:07:35.870Z,99.90
2019-03-12T08:10:15.319Z,99.90
2019-03-12T08:12:57.720Z,99.90
2019-03-12T08:15:33.089Z,99.90
2019-03-12T08:18:25.677Z,99.90
2019-03-12T08:21:21.860Z,99.90
2019-03-12T08:23:51.467Z,99.90
2019-03-12T08:26:24.679Z,99.90
2019-03-12T08:29:17.654Z,99.90
2019-03-12T08:32:04.584Z,99.90
2019-03-12T08:34:48.679Z,99.90
2019-03-12T08:37:26.955Z,99.60
2019-03-12T08:40:17.085Z,99.80
2019-03-12T08:43:06.056Z,99.40
2019-03-12T08:45:48.810Z,95.80
2019-03-12T08:48:34.203Z,95.80
2019-03-12T08:51:20.028Z,95.10
2019-03-12T08:54:09.626Z,93.60
2019-03-12T08:56:44.754Z,93.30
2019-03-12T08:59:29.665Z,92.60
2019-03-12T09:02:08.196Z,93.90
2019-03-12T09:04:42.144Z,90.90
2019-03-12T09:07:34.771Z,92.60
2019-03-12T09:10:24.474Z,92.20
2019-03-12T09:13:06.122Z,92.60
2019-03-12T09:15:46.055Z,91.40
2019-03-12T09:21:19.758Z,90.40
2019-03-12T09:24:13.757Z,90.20
2019-03-12T09:26:49.977Z,88.70
2019-03-12T09:29:51.691Z,86.60
2019-03-12T09:32:24.353Z,86.70
2019-03-12T09:34:57.885Z,86.80
2019-03-12T09:37:43.275Z,87.90
2019-03-12T09:40:28.624Z,86.00
2019-03-12T09:43:16.912Z,80.20
2019-03-12T09:46:03.874Z,80.10
2019-03-12T09:48:36.039Z,74.80
2019-03-12T09:51:15.475Z,70.10
2019-03-12T09:53:51.644Z,69.80
2019-03-12T09:56:31.327Z,68.50
2019-03-12T09:59:24.634Z,65.80
2019-03-12T10:02:04.797Z,64.30
2019-03-12T10:04:38.834Z,63.90
2019-03-12T10:07:16.073Z,66.20
2019-03-12T10:10:03.125Z,66.20
2019-03-12T10:12:53.703Z,65.80
2019-03-12T10:15:39.477Z,66.70
2019-03-12T10:18:15.204Z,67.80
2019-03-12T10:21:10.347Z,70.80
2019-03-12T10:23:54.556Z,72.00
2019-03-12T10:26:47.001Z,69.30
2019-03-12T10:29:42.409Z,69.10
2019-03-12T10:32:32.239Z,67.90
2019-03-12T10:35:28.371Z,67.80
2019-03-12T10:38:14.044Z,65.90
2019-03-12T10:40:54.412Z,68.70
2019-03-12T10:43:34.248Z,70.30
2019-03-12T10:46:09.176Z,70.80
2019-03-12T10:48:36.688Z,70.20
2019-03-12T10:51:03.843Z,68.00
2019-03-12T10:53:30.880Z,68.70
2019-03-12T10:55:57.776Z,68.40
2019-03-12T10:58:24.964Z,68.10
2019-03-12T11:00:52.154Z,66.40
2019-03-12T11:03:19.660Z,64.90
2019-03-12T11:05:46.715Z,64.90
2019-03-12T11:08:13.756Z,62.80
2019-03-12T11:10:40.747Z,64.00
2019-03-12T11:13:08.241Z,63.10
2019-03-12T11:15:35.563Z,63.00
2019-03-12T11:18:02.824Z,63.10
2019-03-12T11:20:30.008Z,63.00
2019-03-12T11:22:57.138Z,61.60
2019-03-12T11:25:27.701Z,64.20
2019-03-12T11:27:53.807Z,63.10
2019-03-12T11:30:21.301Z,61.40
2019-03-12T11:32:48.298Z,62.30
2019-03-12T11:35:15.572Z,59.50
2019-03-12T11:37:42.741Z,60.50
2019-03-12T11:40:13.040Z,59.10
2019-03-12T11:42:40.524Z,60.70
2019-03-12T11:45:14.979Z,60.70
2019-03-12T11:47:36.820Z,61.80
2019-03-12T11:50:05.427Z,64.40
2019-03-12T11:52:34.784Z,65.20
2019-03-12T11:55:02.300Z,64.90
2019-03-12T11:57:29.412Z,63.10
2019-03-12T11:59:56.586Z,63.60
2019-03-12T12:02:23.839Z,62.90
2019-03-12T12:04:51.156Z,63.80
2019-03-12T12:07:18.773Z,63.80
2019-03-12T12:09:46.124Z,64.60
2019-03-12T12:12:13.289Z,63.60
2019-03-12T12:14:40.492Z,64.40
2019-03-12T12:17:07.559Z,64.00
2019-03-12T12:19:35.291Z,63.20
2019-03-12T12:22:02.407Z,64.00
2019-03-12T12:24:30.583Z,62.70
2019-03-12T12:26:57.569Z,63.20
2019-03-12T12:29:24.536Z,63.70
2019-03-12T12:31:52.311Z,61.50
2019-03-12T12:34:20.653Z,62.10
2019-03-12T12:36:47.869Z,61.70
2019-03-12T12:39:15.104Z,62.60
2019-03-12T12:41:42.396Z,61.10
2019-03-12T12:44:09.416Z,60.40
2019-03-12T12:46:36.799Z,60.20
2019-03-12T12:49:03.917Z,60.50
2019-03-12T12:51:31.487Z,60.50
2019-03-12T12:53:58.503Z,59.70
2019-03-12T12:56:25.515Z,59.20
2019-03-12T12:58:52.960Z,58.60
2019-03-12T13:01:20.347Z,58.60
2019-03-12T13:03:47.884Z,56.30
2019-03-12T13:06:15.065Z,55.10
2019-03-12T13:08:42.894Z,55.80
2019-03-12T13:11:09.916Z,57.00
2019-03-12T13:13:37.096Z,55.90
2019-03-12T13:16:04.037Z,54.40
2019-03-12T13:18:31.086Z,54.40
2019-03-12T13:20:58.465Z,53.10
2019-03-12T13:23:25.390Z,51.60
2019-03-12T13:25:52.696Z,51.50
2019-03-12T13:28:19.627Z,51.60
2019-03-12T13:30:46.655Z,50.90
2019-03-12T13:33:13.910Z,49.10
2019-03-12T13:35:41.310Z,49.10
2019-03-12T13:38:08.831Z,49.90
2019-03-12T13:40:36.163Z,48.80
2019-03-12T13:43:04.301Z,48.90
2019-03-12T13:45:31.750Z,48.00
2019-03-12T13:47:59.032Z,48.70
2019-03-12T13:50:27.031Z,48.90
2019-03-12T13:52:54.264Z,48.50
2019-03-12T13:55:22.065Z,48.70
2019-03-12T13:57:49.192Z,47.70
2019-03-12T14:00:19.749Z,47.80
2019-03-12T14:02:47.519Z,47.00
2019-03-12T14:05:15.041Z,47.80
2019-03-12T14:07:42.497Z,47.20
2019-03-12T14:10:12.264Z,47.50
2019-03-12T14:12:39.392Z,47.60
2019-03-12T14:15:09.616Z,46.90
2019-03-12T14:17:37.039Z,46.80
2019-03-12T14:20:35.158Z,46.80
2019-03-12T14:23:02.454Z,46.90
2019-03-12T14:25:30.389Z,45.70
2019-03-12T14:27:57.789Z,45.40
2019-03-12T14:30:25.172Z,45.60
2019-03-12T14:32:52.322Z,46.20
2019-03-12T14:35:20.123Z,46.60
2019-03-12T14:37:47.729Z,45.70
2019-03-12T14:40:16.191Z,45.40
2019-03-12T14:42:43.780Z,45.40
2019-03-12T14:45:12.404Z,44.40
2019-03-12T14:47:39.780Z,43.90
2019-03-12T14:50:08.858Z,44.10
2019-03-12T14:52:40.243Z,46.20
2019-03-12T14:55:07.639Z,45.00
2019-03-12T14:57:34.931Z,46.90
2019-03-12T15:00:06.604Z,46.60
2019-03-12T15:02:34.738Z,46.10
2019-03-12T15:05:04.092Z,46.50
2019-03-12T15:07:31.265Z,45.70
2019-03-12T15:09:58.647Z,47.10
2019-03-12T15:12:25.817Z,47.60
2019-03-12T15:14:52.843Z,45.20
2019-03-12T15:17:21.015Z,44.50
2019-03-12T15:19:48.050Z,44.60
2019-03-12T15:22:15.596Z,44.20
2019-03-12T15:24:42.992Z,43.80
2019-03-12T15:27:10.594Z,43.70
2019-03-12T15:29:38.178Z,43.10
2019-03-12T15:32:05.981Z,43.20
2019-03-12T15:34:33.126Z,42.60
2019-03-12T15:37:00.065Z,43.40
2019-03-12T15:39:27.572Z,42.70
2019-03-12T15:41:57.058Z,42.50
2019-03-12T15:44:24.332Z,42.10
2019-03-12T15:46:52.476Z,43.10
2019-03-12T15:49:19.578Z,43.40
2019-03-12T15:51:47.102Z,44.00
2019-03-12T15:54:14.106Z,43.20
2019-03-12T15:56:41.230Z,42.50
2019-03-12T15:59:09.443Z,41.40
2019-03-12T16:01:36.802Z,41.70
2019-03-12T16:04:04.142Z,41.30
2019-03-12T16:06:31.389Z,42.50
2019-03-12T16:08:58.648Z,41.80
2019-03-12T16:11:26.314Z,42.40
2019-03-12T16:13:53.448Z,41.10
2019-03-12T16:16:20.472Z,40.50
2019-03-12T16:18:47.829Z,40.30
2019-03-12T16:21:15.061Z,39.10
2019-03-12T16:23:42.457Z,39.40
2019-03-12T16:26:09.595Z,40.00
2019-03-12T16:28:36.955Z,40.20
2019-03-12T16:31:04.486Z,40.90
2019-03-12T16:33:31.768Z,40.50
2019-03-12T16:35:59.073Z,39.80
2019-03-12T16:38:26.474Z,39.70
2019-03-12T16:40:53.660Z,40.20
2019-03-12T16:43:22.550Z,39.70
2019-03-12T16:45:50.005Z,39.40
2019-03-12T16:48:17.356Z,39.10
2019-03-12T16:50:44.538Z,38.90
2019-03-12T16:53:11.527Z,38.70
2019-03-12T16:55:38.630Z,38.50
2019-03-12T16:58:05.816Z,38.90
2019-03-12T17:03:53.549Z,38.20
2019-03-12T17:06:21.056Z,37.40
2019-03-12T17:08:48.605Z,37.90
2019-03-12T17:11:17.091Z,37.30
2019-03-12T17:13:47.779Z,37.30
2019-03-12T17:16:14.956Z,37.90
2019-03-12T17:18:42.554Z,37.20
2019-03-12T17:21:10.543Z,36.50
2019-03-12T17:23:38.040Z,37.20
2019-03-12T17:26:05.966Z,36.90
2019-03-12T17:28:33.722Z,36.70
2019-03-12T17:31:01.240Z,37.00
2019-03-12T17:33:28.351Z,37.20
2019-03-12T17:35:55.754Z,36.70
2019-03-12T17:38:23.033Z,36.90
2019-03-12T17:40:50.459Z,37.00
2019-03-12T17:43:17.703Z,37.10
2019-03-12T17:45:45.274Z,37.30
2019-03-12T17:48:12.531Z,37.30
2019-03-12T17:50:39.856Z,37.70
2019-03-12T17:53:07.082Z,37.30
2019-03-12T17:55:35.347Z,37.30
2019-03-12T17:58:03.060Z,37.20
2019-03-12T18:00:31.136Z,37.00
2019-03-12T18:02:59.008Z,37.10
2019-03-12T18:05:26.431Z,37.10
2019-03-12T18:07:54.260Z,37.20
2019-03-12T18:10:21.697Z,37.20
2019-03-12T18:12:49.734Z,37.30
2019-03-12T18:15:19.409Z,37.20
2019-03-12T18:17:47.487Z,37.30
2019-03-12T18:20:14.690Z,37.70
2019-03-12T18:22:42.404Z,37.70
2019-03-12T18:25:18.140Z,38.10
2019-03-12T18:27:45.584Z,38.10
2019-03-12T18:30:14.432Z,38.00
2019-03-12T18:32:41.597Z,38.40
2019-03-12T18:35:08.884Z,38.40
2019-03-12T18:37:36.244Z,38.50
2019-03-12T18:40:04.610Z,38.70
2019-03-12T18:42:31.723Z,38.80
2019-03-12T18:44:59.334Z,39.20
2019-03-12T18:47:27.078Z,39.10
2019-03-12T18:49:54.223Z,39.30
2019-03-12T18:52:21.587Z,38.60
2019-03-12T18:54:49.514Z,39.00
2019-03-12T18:57:17.612Z,38.40
2019-03-12T18:59:45.333Z,39.00
2019-03-12T19:02:13.186Z,38.60
2019-03-12T19:04:40.660Z,38.80
2019-03-12T19:07:08.430Z,38.80
2019-03-12T19:09:36.130Z,38.70
2019-03-12T19:12:03.582Z,38.70
2019-03-12T19:14:31.495Z,38.60
2019-03-12T19:16:58.731Z,39.30
2019-03-12T19:19:26.601Z,39.20
2019-03-12T19:21:54.662Z,38.90
2019-03-12T19:24:22.393Z,39.70
2019-03-12T19:26:50.063Z,39.60
2019-03-12T19:29:17.533Z,38.90
2019-03-12T19:31:53.256Z,39.40
2019-03-12T19:34:31.591Z,39.10
2019-03-12T19:36:59.540Z,39.10
2019-03-12T19:39:27.834Z,39.60
2019-03-12T19:41:55.436Z,39.70
2019-03-12T19:44:22.875Z,39.80
2019-03-12T19:46:50.223Z,40.00
2019-03-12T19:49:17.451Z,40.10
2019-03-12T19:51:45.166Z,40.30
2019-03-12T19:54:13.578Z,41.10
2019-03-12T19:56:41.203Z,41.60
2019-03-12T19:59:08.819Z,42.10
2019-03-12T20:01:36.500Z,42.30
2019-03-12T20:04:03.863Z,42.70
2019-03-12T20:06:31.951Z,42.90
2019-03-12T20:08:59.285Z,43.00
2019-03-12T20:11:48.763Z,43.40
2019-03-12T20:14:58.647Z,43.50
2019-03-12T20:18:06.489Z,43.70
2019-03-12T20:21:17.878Z,44.10
2019-03-12T20:24:34.927Z,44.70
2019-03-12T20:27:40.250Z,44.70
2019-03-12T20:30:45.582Z,45.10
2019-03-12T20:34:12.987Z,45.60
2019-03-12T20:37:40.240Z,46.10
2019-03-12T20:40:56.921Z,46.40
2019-03-12T20:44:09.663Z,46.70
2019-03-12T20:47:15.305Z,46.90
2019-03-12T20:50:36.519Z,47.10
2019-03-12T20:53:40.119Z,47.40
2019-03-12T20:56:43.844Z,47.50
2019-03-12T20:59:47.748Z,47.60
2019-03-12T21:02:52.148Z,47.50
2019-03-12T21:06:09.527Z,47.70
2019-03-12T21:09:40.544Z,47.80
2019-03-12T21:12:49.093Z,48.10
2019-03-12T21:16:04.406Z,48.40
2019-03-12T21:19:29.595Z,48.50
2019-03-12T21:22:44.875Z,50.60
2019-03-12T21:25:33.359Z,55.80
2019-03-12T21:28:33.696Z,57.80
2019-03-12T21:31:01.693Z,59.30
2019-03-12T21:33:29.273Z,61.70
2019-03-12T21:35:57.230Z,65.90
2019-03-12T21:38:24.382Z,73.70
2019-03-12T21:40:52.343Z,77.60
2019-03-12T21:43:21.432Z,80.40
2019-03-12T21:45:49.124Z,87.40
2019-03-12T21:48:16.467Z,83.70
2019-03-12T21:50:44.874Z,88.60
2019-03-12T21:53:12.601Z,87.10
2019-03-12T21:55:40.479Z,89.60
2019-03-12T21:58:08.000Z,89.90
2019-03-12T22:00:36.061Z,90.80
2019-03-12T22:03:03.199Z,92.00
2019-03-12T22:05:30.576Z,92.30
2019-03-12T22:07:57.721Z,94.40
2019-03-12T22:10:24.844Z,96.40
2019-03-12T22:12:52.209Z,96.60
2019-03-12T22:15:19.604Z,97.30
2019-03-12T22:17:46.860Z,98.50
2019-03-12T22:20:14.239Z,99.40
2019-03-12T22:22:49.374Z,99.70
2019-03-12T22:25:16.779Z,99.90
2019-03-12T22:27:44.803Z,99.90
2019-03-12T22:30:14.617Z,99.90
2019-03-12T22:32:42.235Z,99.90
2019-03-12T22:35:09.354Z,99.90
2019-03-12T22:37:36.938Z,99.90
2019-03-12T22:40:04.032Z,99.90
2019-03-12T22:42:31.395Z,99.90
2019-03-12T22:44:58.416Z,99.00
2019-03-12T22:47:25.608Z,98.80
2019-03-12T22:49:52.879Z,97.80
2019-03-12T22:52:19.791Z,95.00
2019-03-12T22:54:47.167Z,93.20
2019-03-12T22:57:14.382Z,92.90
2019-03-12T22:59:59.951Z,91.80
2019-03-12T23:02:46.226Z,92.40
2019-03-12T23:05:32.114Z,94.40
2019-03-12T23:08:18.211Z,96.60
2019-03-12T23:10:47.479Z,98.40
2019-03-12T23:13:16.799Z,99.90
2019-03-12T23:15:44.678Z,99.90
2019-03-12T23:18:12.396Z,99.90
2019-03-12T23:20:39.931Z,99.90
2019-03-12T23:23:07.284Z,99.90
2019-03-12T23:25:34.820Z,99.90
2019-03-12T23:28:02.635Z,99.90
2019-03-12T23:30:30.489Z,99.90
2019-03-12T23:32:57.763Z,99.90
2019-03-12T23:35:25.018Z,99.90
2019-03-12T23:37:52.807Z,99.90
2019-03-12T23:40:19.829Z,99.90
2019-03-12T23:42:47.487Z,99.90
2019-03-12T23:45:15.857Z,99.90
2019-03-12T23:47:44.014Z,99.90
2019-03-12T23:50:11.700Z,99.90
2019-03-12T23:52:38.819Z,99.90
2019-03-12T23:55:06.328Z,99.90
2019-03-12T23:57:33.622Z,99.90
